Time;durP1;ratioP1;P1;durP2;ratioP2;P2;SDS_P1;SDS_P2;PMS_P1;PMS_P2;Temp;Humidity;BMP_temperature;BMP_pressure;BME280_temperature;BME280_humidity;BME280_pressure;Samples;Min_cycle;Max_cycle;Signal;HPM_P1;HPM_P2
2022/07/18 00:01:35;;;;;;;6.97;4.10;;;;;;;16.98;100.00;102516.59;4966971;28;20053;-85
2022/07/18 00:04:06;;;;;;;5.50;4.75;;;;;;;16.95;100.00;102516.56;4966148;28;20511;-86
2022/07/18 00:06:38;;;;;;;8.23;4.78;;;;;;;16.93;100.00;102507.69;4980378;28;20047;-85
2022/07/18 00:09:06;;;;;;;11.57;4.95;;;;;;;16.91;100.00;102506.78;4963112;28;20493;-85
2022/07/18 00:11:35;;;;;;;7.47;5.15;;;;;;;16.87;100.00;102511.22;4948768;28;20531;-85
2022/07/18 00:14:03;;;;;;;6.38;4.65;;;;;;;16.86;100.00;102508.53;4983132;28;20058;-85
2022/07/18 00:16:32;;;;;;;6.07;4.50;;;;;;;16.83;100.00;102509.44;4965229;28;20043;-85
2022/07/18 00:19:03;;;;;;;7.40;4.90;;;;;;;16.82;100.00;102504.06;4950476;28;20053;-85
2022/07/18 00:21:32;;;;;;;5.63;4.53;;;;;;;16.80;100.00;102503.16;4964422;28;20030;-85
2022/07/18 00:24:02;;;;;;;7.53;5.45;;;;;;;16.76;100.00;102505.81;4983521;28;20046;-86
2022/07/18 00:26:34;;;;;;;7.25;5.72;;;;;;;16.74;100.00;102504.91;4995852;28;20042;-85
2022/07/18 00:29:03;;;;;;;9.50;5.10;;;;;;;16.72;100.00;102504.03;4946658;28;20524;-85
2022/07/18 00:31:33;;;;;;;7.63;5.15;;;;;;;16.69;100.00;102493.38;4963394;28;20051;-86
2022/07/18 00:34:03;;;;;;;10.32;5.25;;;;;;;16.68;100.00;102490.72;4948910;28;20504;-85
2022/07/18 00:36:31;;;;;;;9.35;5.18;;;;;;;16.65;100.00;102488.03;4976381;28;20069;-86
2022/07/18 00:39:00;;;;;;;12.02;5.05;;;;;;;16.64;100.00;102488.94;4945334;28;20050;-85
2022/07/18 00:41:29;;;;;;;6.68;4.55;;;;;;;16.59;100.00;102483.56;4959151;28;20031;-85
2022/07/18 00:43:58;;;;;;;7.50;4.70;;;;;;;16.57;100.00;102490.66;4978525;28;20061;-85
2022/07/18 00:46:28;;;;;;;10.85;5.30;;;;;;;16.54;100.00;102485.31;4980384;28;20053;-85
2022/07/18 00:48:57;;;;;;;7.78;4.88;;;;;;;16.51;100.00;102490.63;4951722;28;20047;-85
2022/07/18 00:51:36;;;;;;;7.43;5.38;;;;;;;16.50;100.00;102488.84;4961207;28;20374;-86
2022/07/18 00:54:04;;;;;;;7.13;4.97;;;;;;;16.46;100.00;102487.06;4956870;28;20162;-86
2022/07/18 00:56:33;;;;;;;9.07;5.63;;;;;;;16.44;100.00;102488.81;4954473;28;20126;-86
2022/07/18 00:59:02;;;;;;;5.40;4.90;;;;;;;16.42;100.00;102490.59;4960470;28;20050;-86
2022/07/18 01:01:43;;;;;;;5.85;5.22;;;;;;;16.40;100.00;102490.56;4978377;28;20069;-86
2022/07/18 01:04:20;;;;;;;8.13;5.70;;;;;;;16.37;100.00;102483.47;4939889;28;20082;-86
2022/07/18 01:06:51;;;;;;;6.38;5.38;;;;;;;16.36;100.00;102479.03;4950850;28;20055;-86
2022/07/18 01:09:21;;;;;;;7.75;5.60;;;;;;;16.34;100.00;102483.44;4976176;28;20055;-86
2022/07/18 01:11:50;;;;;;;7.20;6.50;;;;;;;16.30;100.00;102481.66;4973457;28;20401;-86
2022/07/18 01:14:19;;;;;;;9.93;6.72;;;;;;;16.28;100.00;102483.44;4972311;28;20042;-86
2022/07/18 01:16:49;;;;;;;6.68;5.75;;;;;;;16.26;100.00;102485.19;4952517;28;20051;-86
2022/07/18 01:19:17;;;;;;;8.02;6.00;;;;;;;16.23;100.00;102482.50;4940876;28;20054;-86
2022/07/18 01:21:46;;;;;;;9.15;5.63;;;;;;;16.21;100.00;102476.28;4940877;29;20552;-86
2022/07/18 01:24:14;;;;;;;7.57;5.72;;;;;;;16.19;100.00;102488.69;4936984;29;20051;-86
2022/07/18 01:26:43;;;;;;;7.88;5.53;;;;;;;16.17;100.00;102474.50;4939032;29;20517;-86
2022/07/18 01:29:12;;;;;;;8.43;5.53;;;;;;;16.15;100.00;102477.13;4950618;28;20346;-86
2022/07/18 01:31:40;;;;;;;9.20;5.95;;;;;;;16.12;100.00;102481.53;4945591;28;20099;-86
2022/07/18 01:34:09;;;;;;;7.13;5.63;;;;;;;16.11;100.00;102479.78;4952798;28;20066;-86
2022/07/18 01:36:39;;;;;;;7.97;6.07;;;;;;;16.09;100.00;102484.22;4913847;28;20043;-86
2022/07/18 01:39:07;;;;;;;9.18;6.32;;;;;;;16.07;100.00;102475.34;4943031;28;20692;-86
2022/07/18 01:41:35;;;;;;;9.93;7.03;;;;;;;16.06;100.00;102478.84;4920787;28;20039;-86
2022/07/18 01:44:04;;;;;;;7.63;5.60;;;;;;;16.05;100.00;102480.63;4947067;28;20057;-85
2022/07/18 01:46:32;;;;;;;7.10;6.40;;;;;;;16.04;100.00;102478.84;4941623;28;20042;-85
2022/07/18 01:49:02;;;;;;;8.23;6.38;;;;;;;16.01;100.00;102468.19;4938763;28;20283;-87
2022/07/18 01:51:30;;;;;;;10.48;6.78;;;;;;;16.00;100.00;102465.53;4960553;28;20039;-85
2022/07/18 01:54:01;;;;;;;12.25;6.97;;;;;;;15.97;100.00;102466.38;4955471;28;20051;-85
2022/07/18 01:56:30;;;;;;;9.35;6.70;;;;;;;15.94;100.00;102464.59;4955903;28;20054;-85
2022/07/18 01:59:02;;;;;;;8.13;6.70;;;;;;;15.93;100.00;102454.84;4959125;28;20055;-85
2022/07/18 02:01:30;;;;;;;8.68;6.63;;;;;;;15.93;100.00;102454.84;4962707;28;20047;-86
2022/07/18 02:03:59;;;;;;;12.50;6.70;;;;;;;15.94;100.00;102461.94;4965939;28;20049;-86
2022/07/18 02:06:27;;;;;;;6.95;5.65;;;;;;;15.95;100.00;102462.81;4942046;28;20048;-86
2022/07/18 02:08:57;;;;;;;9.57;6.60;;;;;;;15.96;100.00;102453.97;4933370;29;20055;-86
2022/07/18 02:11:26;;;;;;;7.10;6.25;;;;;;;15.97;100.00;102450.44;4930237;29;20047;-86
2022/07/18 02:13:55;;;;;;;7.45;6.63;;;;;;;15.98;100.00;102447.78;4968362;28;20054;-86
2022/07/18 02:16:23;;;;;;;9.40;6.53;;;;;;;15.96;100.00;102441.56;4945659;28;20051;-85
2022/07/18 02:18:52;;;;;;;9.45;6.20;;;;;;;15.96;100.00;102446.00;4953556;28;20035;-86
2022/07/18 02:21:21;;;;;;;9.00;6.68;;;;;;;15.95;100.00;102453.09;4936824;29;20047;-85
2022/07/18 02:23:50;;;;;;;8.10;6.60;;;;;;;15.93;100.00;102452.16;4953445;28;20501;-86
2022/07/18 02:26:19;;;;;;;9.15;7.18;;;;;;;15.92;100.00;102450.41;4950387;28;20428;-86
2022/07/18 02:28:47;;;;;;;12.63;6.72;;;;;;;15.93;100.00;102451.28;4922921;28;20051;-86
2022/07/18 02:31:16;;;;;;;11.30;7.45;;;;;;;15.91;100.00;102459.25;4931339;28;20054;-86
2022/07/18 02:33:44;;;;;;;9.55;6.85;;;;;;;15.90;100.00;102464.59;4923822;29;20043;-86
2022/07/18 02:36:14;;;;;;;8.88;7.20;;;;;;;15.89;100.00;102457.47;4934773;29;20044;-86
2022/07/18 02:38:42;;;;;;;11.73;7.30;;;;;;;15.87;100.00;102467.22;4948026;28;20205;-86
2022/07/18 02:41:11;;;;;;;13.35;7.63;;;;;;;15.86;100.00;102453.03;4951965;28;20039;-86
2022/07/18 02:43:39;;;;;;;8.68;6.57;;;;;;;15.84;100.00;102454.81;4956011;28;20047;-85
2022/07/18 02:46:08;;;;;;;10.85;7.25;;;;;;;15.83;100.00;102449.47;4951020;28;20054;-86
2022/07/18 02:48:36;;;;;;;10.38;6.72;;;;;;;15.82;100.00;102450.31;4957017;28;20054;-86
2022/07/18 02:51:05;;;;;;;9.73;6.88;;;;;;;15.79;100.00;102457.41;4937496;29;20062;-86
2022/07/18 02:53:33;;;;;;;11.13;7.95;;;;;;;15.78;100.00;102444.09;4941246;29;20508;-85
2022/07/18 02:56:02;;;;;;;8.32;6.90;;;;;;;15.77;100.00;102453.84;4937552;29;20058;-86
2022/07/18 02:58:32;;;;;;;12.18;6.50;;;;;;;15.75;100.00;102454.72;4960742;28;20054;-86
2022/07/18 03:01:00;;;;;;;11.85;6.60;;;;;;;15.73;100.00;102446.75;4947647;29;20047;-85
2022/07/18 03:03:30;;;;;;;8.20;7.22;;;;;;;15.72;100.00;102444.91;4917732;29;20055;-86
2022/07/18 03:05:58;;;;;;;10.68;6.80;;;;;;;15.70;100.00;102438.69;4936853;28;20057;-86
2022/07/18 03:08:27;;;;;;;8.63;6.55;;;;;;;15.69;100.00;102428.06;4972966;28;20043;-86
2022/07/18 03:10:55;;;;;;;8.93;7.72;;;;;;;15.68;100.00;102439.56;4952921;28;20057;-84
2022/07/18 03:13:23;;;;;;;11.82;7.63;;;;;;;15.67;100.00;102433.38;4935435;28;20043;-86
2022/07/18 03:15:52;;;;;;;8.48;7.18;;;;;;;15.66;100.00;102433.38;4967972;28;20035;-86
2022/07/18 03:18:22;;;;;;;11.52;7.53;;;;;;;15.65;100.00;102418.28;4948867;28;20173;-86
2022/07/18 03:20:51;;;;;;;12.13;7.40;;;;;;;15.64;100.00;102421.84;4956230;28;20035;-86
2022/07/18 03:23:19;;;;;;;9.25;7.18;;;;;;;15.63;100.00;102402.31;4939868;28;20532;-86
2022/07/18 03:25:47;;;;;;;9.30;6.88;;;;;;;15.63;100.00;102401.44;4968417;28;20038;-86
2022/07/18 03:28:17;;;;;;;8.40;7.25;;;;;;;15.65;100.00;102386.41;4940551;28;20035;-86
2022/07/18 03:30:45;;;;;;;11.90;7.47;;;;;;;15.65;100.00;102389.06;4973787;28;20054;-86
2022/07/18 03:33:14;;;;;;;9.10;6.90;;;;;;;15.66;100.00;102391.72;4957534;28;20061;-87
2022/07/18 03:35:42;;;;;;;11.02;8.73;;;;;;;15.68;100.00;102392.63;4959883;28;20046;-87
2022/07/18 03:38:10;;;;;;;10.23;7.88;;;;;;;15.70;100.00;102398.84;4972995;28;20650;-87
2022/07/18 03:40:39;;;;;;;8.73;6.63;;;;;;;15.73;100.00;102397.97;4936538;28;20043;-86
2022/07/18 03:43:07;;;;;;;9.77;7.43;;;;;;;15.75;100.00;102396.25;4960873;28;20049;-86
2022/07/18 03:45:36;;;;;;;9.57;7.25;;;;;;;15.77;100.00;102383.88;4961466;28;20030;-86
2022/07/18 03:48:13;;;;;;;8.27;6.65;;;;;;;15.79;100.00;102388.31;4974477;28;20070;-86
2022/07/18 03:50:43;;;;;;;11.05;6.88;;;;;;;15.80;100.00;102386.53;4950709;28;20062;-86
2022/07/18 03:53:11;;;;;;;11.82;6.85;;;;;;;15.81;100.00;102393.63;4954115;28;20035;-86
2022/07/18 03:55:40;;;;;;;11.13;6.38;;;;;;;15.83;100.00;102399.84;4951798;28;20035;-86
2022/07/18 03:58:08;;;;;;;11.88;6.88;;;;;;;15.85;100.00;102394.53;4953844;28;20517;-86
2022/07/18 04:00:37;;;;;;;12.88;6.65;;;;;;;15.86;100.00;102399.88;4957711;28;20058;-86
2022/07/18 04:03:06;;;;;;;11.98;6.65;;;;;;;15.89;100.00;102406.97;4976711;28;20035;-86
2022/07/18 04:05:34;;;;;;;8.98;6.88;;;;;;;15.90;100.00;102404.31;4939466;28;20054;-86
2022/07/18 04:08:03;;;;;;;8.80;6.57;;;;;;;15.93;100.00;102409.63;4948087;28;20068;-86
2022/07/18 04:10:32;;;;;;;9.13;6.80;;;;;;;15.96;100.00;102399.03;4939430;29;20059;-86
2022/07/18 04:13:00;;;;;;;11.93;6.60;;;;;;;16.01;100.00;102404.41;4936942;28;20047;-86
2022/07/18 04:15:29;;;;;;;11.48;6.60;;;;;;;16.06;100.00;102389.31;4953322;28;20498;-86
2022/07/18 04:17:58;;;;;;;9.55;6.45;;;;;;;16.12;100.00;102384.06;4952867;29;20062;-86
2022/07/18 04:20:27;;;;;;;12.15;6.47;;;;;;;16.17;100.00;102373.44;4919933;28;20046;-86
2022/07/18 04:22:58;;;;;;;12.30;8.35;;;;;;;16.21;100.00;102364.56;4939985;29;20059;-85
2022/07/18 04:25:29;;;;;;;8.93;6.65;;;;;;;16.26;100.00;102357.50;4959026;28;20047;-85
2022/07/18 04:27:58;;;;;;;9.60;6.85;;;;;;;16.32;100.00;102365.50;4945285;28;20078;-86
2022/07/18 04:30:27;;;;;;;8.30;6.50;;;;;;;16.37;100.00;102374.41;4955330;28;20169;-86
2022/07/18 04:33:00;;;;;;;9.95;7.03;;;;;;;16.41;100.00;102379.72;4957058;28;20058;-86
2022/07/18 04:35:31;;;;;;;12.32;6.57;;;;;;;16.47;100.00;102377.09;4941881;28;20390;-85
2022/07/18 04:37:59;;;;;;;9.85;5.88;;;;;;;16.52;100.00;102362.91;4939888;28;20047;-85
2022/07/18 04:40:31;;;;;;;13.50;7.07;;;;;;;16.62;100.00;102354.97;4944555;28;20039;-85
2022/07/18 04:43:02;;;;;;;13.65;6.70;;;;;;;16.77;100.00;102360.31;4949730;28;20046;-86
2022/07/18 04:45:30;;;;;;;10.60;6.28;;;;;;;16.81;100.00;102356.75;4940368;29;20047;-86
2022/07/18 04:48:00;;;;;;;11.48;6.70;;;;;;;16.84;100.00;102363.88;4955939;28;20054;-86
2022/07/18 04:50:31;;;;;;;12.88;7.32;;;;;;;16.83;100.00;102359.47;4950030;28;20047;-85
2022/07/18 04:53:00;;;;;;;9.90;7.18;;;;;;;16.81;100.00;102363.88;4953287;28;20035;-85
2022/07/18 04:55:30;;;;;;;14.02;7.88;;;;;;;16.80;100.00;102354.09;4966081;28;20039;-87
2022/07/18 04:57:59;;;;;;;10.70;7.07;;;;;;;16.78;100.00;102348.75;4955478;28;20043;-87
2022/07/18 05:00:27;;;;;;;8.23;5.88;;;;;;;16.76;100.00;102343.44;4954095;28;20043;-86
2022/07/18 05:02:58;;;;;;;10.40;6.57;;;;;;;16.73;100.00;102346.09;4923501;28;20055;-86
2022/07/18 05:05:28;;;;;;;11.95;7.43;;;;;;;16.74;100.00;102345.19;4951544;28;20055;-86
2022/07/18 05:08:06;;;;;;;9.75;6.53;;;;;;;16.74;100.00;102339.00;4957875;28;20043;-86
2022/07/18 05:10:38;;;;;;;13.23;6.57;;;;;;;16.71;100.00;102334.56;4930816;28;20031;-86
2022/07/18 05:13:06;;;;;;;9.00;6.03;;;;;;;16.73;100.00;102340.78;4926409;29;20052;-85
2022/07/18 05:15:35;;;;;;;10.25;7.15;;;;;;;16.76;100.00;102346.09;4954317;28;20031;-85
2022/07/18 05:18:06;;;;;;;10.35;6.10;;;;;;;16.78;100.00;102335.44;4948807;28;20051;-86
2022/07/18 05:20:38;;;;;;;9.75;6.38;;;;;;;16.81;100.00;102330.13;4919099;29;20043;-86
2022/07/18 05:23:14;;;;;;;9.15;6.28;;;;;;;16.84;100.00;102338.16;4946338;29;20058;-86
2022/07/18 05:25:42;;;;;;;15.95;6.93;;;;;;;16.85;100.00;102331.06;4956628;28;20066;-86
2022/07/18 05:28:11;;;;;;;11.63;6.90;;;;;;;16.87;100.00;102331.94;4929813;29;20051;-86
2022/07/18 05:30:40;;;;;;;11.73;6.43;;;;;;;16.90;100.00;102335.50;4923061;29;20046;-85
2022/07/18 05:33:08;;;;;;;10.65;6.45;;;;;;;16.92;100.00;102335.50;4953296;28;20268;-86
2022/07/18 05:35:37;;;;;;;12.02;6.40;;;;;;;16.94;100.00;102333.75;4923072;29;20737;-85
2022/07/18 05:38:06;;;;;;;11.73;5.90;;;;;;;16.98;100.00;102332.84;4940991;28;20047;-85
2022/07/18 05:40:35;;;;;;;12.25;6.55;;;;;;;17.02;100.00;102331.06;4931324;29;20433;-84
2022/07/18 05:43:04;;;;;;;11.55;6.45;;;;;;;17.06;100.00;102324.84;4923503;28;20055;-85
2022/07/18 05:45:32;;;;;;;17.75;5.75;;;;;;;17.11;100.00;102323.97;4956278;28;20046;-86
2022/07/18 05:48:02;;;;;;;16.90;6.35;;;;;;;17.17;100.00;102323.06;4938629;29;20052;-86
2022/07/18 05:50:31;;;;;;;7.40;5.47;;;;;;;17.24;100.00;102321.28;4954378;29;20465;-86
2022/07/18 05:53:00;;;;;;;9.05;5.85;;;;;;;17.37;100.00;102328.34;4930740;28;20284;-86
2022/07/18 05:55:31;;;;;;;8.68;5.57;;;;;;;17.46;100.00;102320.34;4920892;28;20047;-84
2022/07/18 05:57:59;;;;;;;9.35;5.28;;;;;;;17.56;100.00;102318.59;4939357;28;20054;-83
2022/07/18 06:00:30;;;;;;;7.28;4.75;;;;;;;17.64;100.00;102313.22;4937489;29;20063;-83
2022/07/18 06:03:00;;;;;;;8.45;5.03;;;;;;;17.69;100.00;102311.41;4937993;28;20047;-84
2022/07/18 06:05:30;;;;;;;10.35;5.72;;;;;;;17.74;100.00;102305.19;4923189;29;20047;-86
2022/07/18 06:08:02;;;;;;;10.40;4.80;;;;;;;17.79;100.00;102307.84;4949474;28;20507;-85
2022/07/18 06:10:30;;;;;;;7.57;4.78;;;;;;;17.85;100.00;102307.84;4956718;28;20058;-85
2022/07/18 06:12:59;;;;;;;6.40;4.38;;;;;;;17.90;100.00;102306.06;4970260;28;20061;-87
2022/07/18 06:15:28;;;;;;;9.90;4.38;;;;;;;17.99;100.00;102312.22;4961209;28;20047;-85
2022/07/18 06:17:59;;;;;;;7.60;4.63;;;;;;;18.06;100.00;102312.19;4942514;28;20046;-85
2022/07/18 06:20:28;;;;;;;9.63;4.80;;;;;;;18.19;100.00;102314.81;4962811;28;20046;-85
2022/07/18 06:23:00;;;;;;;10.68;5.20;;;;;;;18.31;100.00;102317.41;4955172;28;20059;-85
2022/07/18 06:25:33;;;;;;;12.02;5.38;;;;;;;18.44;100.00;102318.22;4949849;28;20501;-85
2022/07/18 06:28:01;;;;;;;8.63;5.13;;;;;;;18.57;100.00;102311.91;4970851;28;20057;-88
2022/07/18 06:30:30;;;;;;;12.95;4.68;;;;;;;18.73;100.00;102315.34;4953922;28;20042;-85
2022/07/18 06:32:59;;;;;;;6.45;4.63;;;;;;;18.89;100.00;102326.84;4976854;28;20053;-85
2022/07/18 06:35:27;;;;;;;8.40;4.47;;;;;;;19.17;100.00;102321.25;4963478;28;20043;-86
2022/07/18 06:37:58;;;;;;;6.63;4.82;;;;;;;19.47;99.23;102320.09;4950108;28;20051;-85
2022/07/18 06:40:27;;;;;;;11.15;4.90;;;;;;;19.72;96.99;102333.19;4949527;28;20047;-84
2022/07/18 06:42:55;;;;;;;9.07;4.60;;;;;;;19.95;96.12;102333.81;4957016;28;20055;-86
2022/07/18 06:45:27;;;;;;;8.35;4.72;;;;;;;20.09;93.66;102341.66;4924232;29;20051;-84
2022/07/18 06:47:55;;;;;;;5.50;4.53;;;;;;;20.15;92.85;102333.56;4949306;28;20054;-84
2022/07/18 06:50:31;;;;;;;6.32;4.78;;;;;;;20.22;92.72;102343.28;4941008;28;20065;-85
2022/07/18 06:52:59;;;;;;;6.35;5.28;;;;;;;20.29;92.17;102345.88;4950455;28;20051;-85
2022/07/18 06:55:29;;;;;;;9.73;5.32;;;;;;;20.32;92.55;102340.47;4957159;28;20034;-86
2022/07/18 06:57:58;;;;;;;9.57;4.68;;;;;;;20.37;91.83;102341.31;4967625;28;20050;-86
2022/07/18 07:00:27;;;;;;;6.75;5.10;;;;;;;20.40;91.86;102344.81;4969032;28;20061;-85
2022/07/18 07:02:55;;;;;;;5.47;4.68;;;;;;;20.42;91.46;102336.78;4956736;28;20059;-85
2022/07/18 07:05:24;;;;;;;9.60;5.15;;;;;;;20.49;91.40;102330.44;4953156;28;20046;-85
2022/07/18 07:07:54;;;;;;;7.25;4.80;;;;;;;20.51;91.60;102323.25;4949726;28;20058;-84
2022/07/18 07:10:22;;;;;;;7.20;4.25;;;;;;;20.55;91.12;102324.09;4954083;28;20362;-85
2022/07/18 07:12:52;;;;;;;6.25;4.65;;;;;;;20.63;91.53;102332.94;4956714;28;20648;-85
2022/07/18 07:15:22;;;;;;;8.67;4.40;;;;;;;20.71;91.03;102330.13;4956209;28;20044;-85
2022/07/18 07:17:51;;;;;;;8.45;4.40;;;;;;;20.76;90.43;102315.75;4968392;28;20297;-85
2022/07/18 07:20:21;;;;;;;6.15;3.72;;;;;;;20.84;89.57;102324.53;4950504;28;20046;-85
2022/07/18 07:22:52;;;;;;;8.82;4.40;;;;;;;20.97;89.68;102316.31;4951010;28;20047;-84
2022/07/18 07:25:25;;;;;;;6.53;3.42;;;;;;;21.11;88.66;102316.06;4975360;28;20046;-84
2022/07/18 07:28:05;;;;;;;6.68;3.67;;;;;;;21.27;87.54;102320.25;4974894;28;20057;-86
2022/07/18 07:30:34;;;;;;;5.85;2.78;;;;;;;21.42;87.07;102311.03;4963610;28;20397;-85
2022/07/18 07:33:03;;;;;;;4.78;2.83;;;;;;;21.59;85.07;102313.44;4974152;28;20058;-85
2022/07/18 07:35:31;;;;;;;6.18;3.08;;;;;;;21.69;83.23;102311.44;4973848;28;20046;-86
2022/07/18 07:38:00;;;;;;;4.88;2.45;;;;;;;21.82;82.36;102304.03;4942551;28;20051;-85
2022/07/18 07:40:30;;;;;;;4.68;2.92;;;;;;;21.96;81.41;102301.94;4982833;28;20046;-86
2022/07/18 07:43:16;;;;;;;5.68;2.35;;;;;;;22.10;81.28;102307.03;4955507;28;20296;-84
2022/07/18 07:45:49;;;;;;;6.95;2.65;;;;;;;22.27;80.75;102312.03;4975443;28;20034;-85
2022/07/18 07:48:17;;;;;;;4.82;2.40;;;;;;;22.44;80.52;102304.47;4967908;28;20054;-86
2022/07/18 07:50:46;;;;;;;2.70;1.95;;;;;;;22.61;78.53;102303.19;4963603;28;20035;-84
2022/07/18 07:53:18;;;;;;;7.03;2.30;;;;;;;22.73;76.58;102303.75;4961701;28;20051;-85
2022/07/18 07:55:46;;;;;;;5.22;1.85;;;;;;;22.81;74.85;102297.31;4950957;28;20047;-86
2022/07/18 07:58:15;;;;;;;4.82;1.83;;;;;;;22.87;75.45;102294.47;4958363;28;20777;-87
2022/07/18 08:00:44;;;;;;;3.85;1.80;;;;;;;22.92;75.00;102288.06;4960417;28;20066;-87
2022/07/18 08:03:12;;;;;;;2.67;1.83;;;;;;;23.00;73.86;102289.69;4966781;28;20035;-87
2022/07/18 08:05:49;;;;;;;3.35;1.60;;;;;;;23.06;72.58;102285.06;4970192;28;20164;-87
2022/07/18 08:08:18;;;;;;;4.10;1.67;;;;;;;23.17;72.77;102274.00;4952446;28;20050;-88
2022/07/18 08:10:47;;;;;;;3.10;2.20;;;;;;;23.32;70.24;102276.28;4951114;28;20260;-86
2022/07/18 08:13:17;;;;;;;1.92;1.70;;;;;;;23.43;69.80;102262.53;4962216;28;20098;-87
2022/07/18 08:15:46;;;;;;;4.38;1.90;;;;;;;23.48;68.55;102273.19;4934061;28;20436;-87
2022/07/18 08:18:27;;;;;;;2.30;1.60;;;;;;;23.45;67.83;102287.56;4954805;28;20051;-87
2022/07/18 08:21:21;;;;;;;3.00;1.75;;;;;;;23.42;68.23;102282.31;4960209;28;20046;-87
2022/07/18 08:23:51;;;;;;;4.63;1.90;;;;;;;23.39;68.08;102286.88;4953387;28;20047;-88
2022/07/18 08:26:38;;;;;;;;;;;;;;;;;;;;;
2022/07/18 08:29:16;;;;;;;5.50;2.20;;;;;;;23.57;70.07;102290.84;4941181;28;20040;-88
2022/07/18 08:31:44;;;;;;;4.15;1.83;;;;;;;23.68;69.07;102286.03;4954481;28;20043;-88
2022/07/18 08:34:15;;;;;;;6.05;2.10;;;;;;;23.79;68.81;102283.06;4938797;28;20043;-87
2022/07/18 08:36:44;;;;;;;4.97;1.90;;;;;;;23.91;68.17;102288.06;4966816;28;20038;-87
2022/07/18 08:39:12;;;;;;;4.03;1.55;;;;;;;24.00;68.13;102285.13;4971704;28;20057;-87
2022/07/18 08:41:46;;;;;;;3.08;1.80;;;;;;;24.09;68.82;102287.53;4951763;28;20075;-88
2022/07/18 08:44:20;;;;;;;3.20;1.52;;;;;;;24.13;66.99;102278.41;4941191;28;20050;-87
2022/07/18 08:46:53;;;;;;;2.53;1.60;;;;;;;24.17;65.82;102271.13;4970367;28;20512;-87
2022/07/18 08:49:27;;;;;;;3.75;1.70;;;;;;;24.18;65.41;102263.91;4939791;28;20051;-87
2022/07/18 08:51:56;;;;;;;3.35;2.25;;;;;;;24.18;64.86;102264.81;4970294;28;20172;-87
2022/07/18 08:54:26;;;;;;;;;;;;;;;24.18;63.72;102266.63;4938856;28;20070;-87
2022/07/18 08:56:55;;;;;;;3.38;1.67;;;;;;;24.17;65.40;102256.78;4951598;28;19929;-88
2022/07/18 08:59:23;;;;;;;4.82;2.00;;;;;;;24.17;65.14;102252.28;4951717;28;20063;-87
2022/07/18 09:01:52;;;;;;;2.30;1.50;;;;;;;24.18;65.69;102251.38;4971572;28;20260;-87
2022/07/18 09:04:32;;;;;;;3.45;1.52;;;;;;;24.20;62.95;102265.66;4926334;28;20496;-86
2022/07/18 09:07:06;;;;;;;3.47;1.70;;;;;;;24.19;63.04;102268.41;4989868;28;20065;-86
2022/07/18 09:09:36;;;;;;;3.25;1.33;;;;;;;24.16;61.49;102281.94;4975960;28;20038;-87
2022/07/18 09:12:06;;;;;;;3.17;1.70;;;;;;;24.16;62.92;102274.78;4978302;28;20411;-87
2022/07/18 09:14:40;;;;;;;6.18;1.70;;;;;;;24.17;62.14;102264.88;4956916;28;20039;-88
2022/07/18 09:17:25;;;;;;;3.00;1.40;;;;;;;24.19;62.09;102257.63;4991566;28;20508;-88
2022/07/18 09:20:16;;;;;;;4.88;1.95;;;;;;;24.23;62.61;102265.53;4959246;28;20055;-87
2022/07/18 09:22:50;;;;;;;6.55;1.85;;;;;;;24.24;62.37;102256.53;4967415;28;20035;-87
2022/07/18 09:25:21;;;;;;;4.65;2.38;;;;;;;24.28;63.62;102249.25;4958864;28;20039;-88
2022/07/18 09:27:52;;;;;;;4.38;1.90;;;;;;;24.32;63.23;102261.69;4959753;28;20587;-86
2022/07/18 09:30:35;;;;;;;1.60;1.50;;;;;;;24.35;61.73;102258.00;4951162;28;20049;-87
2022/07/18 09:33:04;;;;;;;3.45;1.55;;;;;;;24.36;62.72;102252.56;4952398;28;20376;-87
2022/07/18 09:35:34;;;;;;;3.33;1.85;;;;;;;24.41;62.75;102250.63;4953272;28;20043;-87
2022/07/18 09:38:11;;;;;;;2.92;1.52;;;;;;;24.49;63.10;102251.22;4953675;28;20051;-87
2022/07/18 09:40:46;;;;;;;3.65;1.88;;;;;;;24.59;63.65;102248.28;4959992;28;20055;-88
2022/07/18 09:43:18;;;;;;;3.83;1.98;;;;;;;24.70;63.82;102243.41;4970620;28;20061;-87
2022/07/18 09:45:48;;;;;;;4.38;2.08;;;;;;;24.79;63.01;102253.00;4967877;28;20043;-87
2022/07/18 09:48:18;;;;;;;6.13;2.08;;;;;;;24.85;62.62;102252.78;4977237;28;20062;-87
2022/07/18 09:50:55;;;;;;;4.78;1.63;;;;;;;24.96;62.78;102257.81;4968179;28;20055;-87
2022/07/18 09:53:26;;;;;;;6.05;1.98;;;;;;;25.04;61.80;102261.97;4952266;28;20039;-87
2022/07/18 09:56:11;;;;;;;2.53;1.67;;;;;;;25.13;63.17;102258.09;4935742;28;20055;-87
2022/07/18 09:58:49;;;;;;;3.08;1.65;;;;;;;25.27;63.17;102266.59;4971603;28;20515;-86
2022/07/18 10:01:18;;;;;;;3.88;1.55;;;;;;;25.39;62.28;102261.69;4959998;28;20255;-87
2022/07/18 10:03:48;;;;;;;2.10;1.20;;;;;;;25.48;62.59;102258.63;4957621;28;20050;-88
2022/07/18 10:06:18;;;;;;;2.75;1.40;;;;;;;25.55;60.54;102267.41;4961863;28;20177;-87
2022/07/18 10:08:46;;;;;;;2.93;1.50;;;;;;;25.58;59.43;102262.78;4955943;28;20051;-87
2022/07/18 10:11:16;;;;;;;2.80;1.50;;;;;;;25.57;57.02;102263.69;4952461;28;20074;-87
2022/07/18 10:13:45;;;;;;;4.80;1.45;;;;;;;25.58;55.85;102265.47;4935168;28;20046;-87
2022/07/18 10:16:14;;;;;;;6.07;1.67;;;;;;;25.63;55.87;102268.88;4903259;28;20050;-86
2022/07/18 10:18:45;;;;;;;2.90;1.65;;;;;;;25.68;56.77;102268.69;4953057;28;20358;-86
2022/07/18 10:21:18;;;;;;;4.15;1.58;;;;;;;25.72;55.31;102267.63;4946238;28;20046;-86
2022/07/18 10:23:47;;;;;;;3.70;1.80;;;;;;;25.81;54.71;102264.59;4942706;28;20061;-85
2022/07/18 10:26:21;;;;;;;3.55;1.40;;;;;;;25.91;55.03;102270.50;4948970;28;20264;-86
2022/07/18 10:28:55;;;;;;;4.60;1.75;;;;;;;25.94;53.82;102266.84;4965002;28;20512;-87
2022/07/18 10:31:28;;;;;;;3.33;1.30;;;;;;;25.92;53.55;102264.22;4929120;28;20055;-87
2022/07/18 10:34:07;;;;;;;4.63;1.55;;;;;;;25.98;54.52;102265.78;4934267;29;20065;-85
2022/07/18 10:36:37;;;;;;;4.60;2.00;;;;;;;26.06;53.71;102264.53;4924704;29;20124;-85
2022/07/18 10:39:21;;;;;;;5.20;1.70;;;;;;;26.11;53.20;102258.97;4926406;29;21572;-86
2022/07/18 10:41:53;;;;;;;2.05;1.77;;;;;;;26.16;53.61;102250.66;4891050;29;20048;-85
2022/07/18 10:44:32;;;;;;;4.35;1.65;;;;;;;26.22;52.84;102256.72;4870109;29;20529;-87
2022/07/18 10:47:08;;;;;;;3.38;2.03;;;;;;;26.31;52.31;102252.72;4900239;29;20059;-87
2022/07/18 10:50:00;;;;;;;3.60;1.65;;;;;;;26.42;52.06;102249.59;4902445;29;20040;-89
2022/07/18 10:52:52;;;;;;;5.47;2.35;;;;;;;26.56;50.87;102249.91;4892774;29;20267;-87
2022/07/18 10:55:41;;;;;;;5.15;2.10;;;;;;;26.66;51.89;102246.88;4902323;29;20051;-86
2022/07/18 10:58:12;;;;;;;4.07;1.65;;;;;;;26.73;50.90;102238.41;4898994;29;20053;-87
2022/07/18 11:00:45;;;;;;;2.63;2.05;;;;;;;26.75;50.46;102246.44;4898045;29;20056;-88
2022/07/18 11:03:16;;;;;;;2.88;1.58;;;;;;;26.83;50.71;102238.91;4916003;28;20055;-87
2022/07/18 11:05:50;;;;;;;2.50;1.63;;;;;;;26.92;49.11;102238.50;4940866;28;20051;-87
2022/07/18 11:08:24;;;;;;;3.58;1.90;;;;;;;26.97;48.62;102239.16;4928471;28;20237;-86
2022/07/18 11:11:01;;;;;;;3.85;1.90;;;;;;;27.06;49.77;102234.31;4953081;28;20621;-87
2022/07/18 11:13:48;;;;;;;2.58;1.65;;;;;;;27.21;48.67;102237.19;4959008;28;20050;-86
2022/07/18 11:16:24;;;;;;;2.95;2.05;;;;;;;27.33;47.92;102230.38;4970546;28;20089;-86
2022/07/18 11:18:54;;;;;;;3.17;1.85;;;;;;;27.46;48.36;102230.69;4945525;28;20074;-88
2022/07/18 11:21:40;;;;;;;7.00;2.33;;;;;;;27.60;47.90;102222.81;4976747;28;20050;-86
2022/07/18 11:24:16;;;;;;;4.82;1.90;;;;;;;27.73;48.06;102231.25;4971204;28;20489;-86
2022/07/18 11:26:47;;;;;;;6.78;2.38;;;;;;;27.88;47.57;102228.75;4972394;28;20054;-85
2022/07/18 11:29:20;;;;;;;4.30;1.92;;;;;;;28.00;47.87;102215.53;4964851;28;20489;-83
2022/07/18 11:31:57;;;;;;;4.60;2.10;;;;;;;28.12;45.97;102215.88;4964850;28;20039;-83
2022/07/18 11:34:35;;;;;;;6.25;2.58;;;;;;;28.16;44.12;102212.91;4944981;28;20061;-84
2022/07/18 11:37:13;;;;;;;4.57;2.20;;;;;;;28.23;43.72;102216.22;4962181;28;20065;-84